createdAt,value
2022-09-15T05:20:00.283Z,1.9
2022-09-15T05:25:00.325Z,1.8
2022-09-15T05:30:35.455Z,2.4
2022-09-15T05:35:00.284Z,3.2
2022-09-15T05:40:01.246Z,2.0
2022-09-15T05:45:00.234Z,2.6
2022-09-15T05:50:00.298Z,3.0
2022-09-15T05:55:00.259Z,2.2
2022-09-15T06:00:00.329Z,3.4
2022-09-15T06:05:00.230Z,3.1
2022-09-15T06:10:00.290Z,5.2
2022-09-15T06:15:00.224Z,2.7
2022-09-15T06:20:00.311Z,2.7
2022-09-15T06:25:00.288Z,1.7
2022-09-15T06:30:00.360Z,3.8
2022-09-15T06:35:00.231Z,3.6
2022-09-15T06:40:00.513Z,2.9
2022-09-15T06:45:00.239Z,3.4
2022-09-15T06:50:00.317Z,2.4
2022-09-15T06:55:00.227Z,2.3
2022-09-15T07:00:00.307Z,1.7
2022-09-15T07:05:00.227Z,1.4
2022-09-15T07:10:00.320Z,2.9
2022-09-15T07:15:00.262Z,1.4
2022-09-15T07:20:00.303Z,5.1
2022-09-15T07:25:00.325Z,3.6
2022-09-15T07:30:00.295Z,2.7
2022-09-15T07:35:00.240Z,1.7
2022-09-15T07:40:00.536Z,3.9
2022-09-15T07:45:00.299Z,4.4
2022-09-15T07:50:00.293Z,3.1
2022-09-15T07:55:00.369Z,3.3
2022-09-15T08:00:00.270Z,4.8
2022-09-15T08:05:00.254Z,4.2
2022-09-15T08:10:00.303Z,2.5
2022-09-15T08:15:00.233Z,2.5
2022-09-15T08:20:00.329Z,3.2
2022-09-15T08:25:00.223Z,2.1
2022-09-15T08:30:00.300Z,5.8
2022-09-15T08:35:00.277Z,5.6
2022-09-15T08:40:00.507Z,4.8
2022-09-15T08:45:00.239Z,3.9
2022-09-15T08:50:00.291Z,5.6
2022-09-15T08:55:00.225Z,4.3
2022-09-15T09:00:00.370Z,3.0
2022-09-15T09:05:00.248Z,6.5
2022-09-15T09:10:00.358Z,4.2
2022-09-15T09:15:00.306Z,4.4
2022-09-15T09:20:00.344Z,5.0
2022-09-15T09:25:05.863Z,4.0
2022-09-15T09:30:00.289Z,4.1
2022-09-15T09:35:00.235Z,4.7
2022-09-15T09:40:00.534Z,4.1
2022-09-15T09:45:00.332Z,7.3
2022-09-15T09:50:00.427Z,6.7
2022-09-15T09:55:00.246Z,4.4
2022-09-15T10:00:00.319Z,5.7
2022-09-15T10:05:00.334Z,4.1
2022-09-15T10:10:00.325Z,5.1
2022-09-15T10:15:00.239Z,6.9
2022-09-15T10:20:00.317Z,4.9
2022-09-15T10:25:00.255Z,6.4
2022-09-15T10:30:00.326Z,5.7
2022-09-15T10:35:00.279Z,5.9
2022-09-15T10:40:00.551Z,7.8
2022-09-15T10:45:00.252Z,5.9
2022-09-15T10:50:00.301Z,6.6
2022-09-15T10:55:00.225Z,5.8
2022-09-15T11:00:00.318Z,8.5
2022-09-15T11:05:00.331Z,7.3
2022-09-15T11:10:00.255Z,4.5
2022-09-15T11:15:00.255Z,3.7
2022-09-15T11:20:00.366Z,4.2
2022-09-15T11:25:00.228Z,6.3
2022-09-15T11:30:00.324Z,4.9
2022-09-15T11:35:00.241Z,6.7
2022-09-15T11:40:00.592Z,6.9
2022-09-15T11:45:00.324Z,5.7
2022-09-15T11:50:00.306Z,2.8
2022-09-15T11:55:00.283Z,3.9
2022-09-15T12:00:00.291Z,4.9
2022-09-15T12:05:00.215Z,4.0
2022-09-15T12:10:00.273Z,5.5
2022-09-15T12:15:00.297Z,7.9
2022-09-15T12:20:00.264Z,6.9
2022-09-15T12:25:01.453Z,4.6
2022-09-15T12:30:00.338Z,4.3
2022-09-15T12:35:00.312Z,4.7
2022-09-15T12:40:00.534Z,3.9
2022-09-15T12:45:00.216Z,7.1
2022-09-15T12:50:00.268Z,6.9
2022-09-15T12:55:00.295Z,6.6
2022-09-15T13:00:00.252Z,5.1
2022-09-15T13:05:00.243Z,5.6
2022-09-15T13:10:00.294Z,6.3
2022-09-15T13:15:00.312Z,6.2
2022-09-15T13:20:00.365Z,9.0
2022-09-15T13:25:02.146Z,6.8
2022-09-15T13:30:00.282Z,7.4
2022-09-15T13:35:14.855Z,6.0
2022-09-15T13:40:00.513Z,7.4
2022-09-15T13:45:00.244Z,4.7
2022-09-15T13:50:00.308Z,8.3
2022-09-15T13:55:00.293Z,6.5
2022-09-15T14:00:00.545Z,5.8
2022-09-15T14:05:00.225Z,7.2
2022-09-15T14:10:00.335Z,6.9
2022-09-15T14:15:00.270Z,5.0
2022-09-15T14:20:00.293Z,7.0
2022-09-15T14:25:00.256Z,4.9
2022-09-15T14:30:00.308Z,5.7
2022-09-15T14:35:00.264Z,6.4
2022-09-15T14:40:00.665Z,4.3
2022-09-15T14:50:00.258Z,5.2
2022-09-15T14:55:00.235Z,4.3
2022-09-15T15:00:00.381Z,8.6
2022-09-15T15:05:00.245Z,6.7
2022-09-15T15:10:00.304Z,3.5
2022-09-15T15:15:00.231Z,2.2
2022-09-15T15:20:00.331Z,2.4
2022-09-15T15:25:00.249Z,2.5
2022-09-15T15:30:00.315Z,1.6
2022-09-15T15:35:00.213Z,1.1
2022-09-15T15:40:00.553Z,3.3
2022-09-15T15:45:00.254Z,3.7
2022-09-15T15:50:13.135Z,4.8
2022-09-15T15:55:00.423Z,4.2
2022-09-15T16:00:00.291Z,2.8
2022-09-15T16:05:00.248Z,3.9
2022-09-15T16:10:00.289Z,3.9
2022-09-15T16:15:00.322Z,3.5
2022-09-15T16:20:00.401Z,2.8
2022-09-15T16:25:00.281Z,3.5
2022-09-15T16:30:00.304Z,2.7
2022-09-15T16:35:00.275Z,3.8
2022-09-15T16:40:00.450Z,3.2
2022-09-15T16:45:00.269Z,3.4
2022-09-15T16:50:00.483Z,3.5
2022-09-15T16:55:00.270Z,2.3
2022-09-15T17:00:00.308Z,2.4
2022-09-15T17:05:00.292Z,2.2
2022-09-15T17:10:00.271Z,3.2
2022-09-15T17:15:00.230Z,2.1
2022-09-15T17:20:00.282Z,2.1
2022-09-15T17:25:00.252Z,2.2
2022-09-15T17:30:00.384Z,2.0
2022-09-15T17:35:00.230Z,2.4
2022-09-15T17:40:00.425Z,3.7
2022-09-15T17:45:00.272Z,4.4
2022-09-15T17:50:00.310Z,3.7
2022-09-15T17:55:00.203Z,4.4
2022-09-15T18:00:00.338Z,2.5
2022-09-15T18:05:00.215Z,3.2
2022-09-15T18:10:00.308Z,2.0
2022-09-15T18:15:00.223Z,2.8
2022-09-15T18:20:00.284Z,1.9
2022-09-15T18:25:00.265Z,1.8
2022-09-15T18:30:00.355Z,2.4
2022-09-15T18:35:00.211Z,0.8
2022-09-15T18:40:00.428Z,1.6
2022-09-15T18:45:00.244Z,2.5
2022-09-15T18:50:00.320Z,1.9
2022-09-15T18:55:00.528Z,1.6
2022-09-15T19:00:00.290Z,2.4
2022-09-15T19:05:00.225Z,1.9
2022-09-15T19:10:00.314Z,3.5
2022-09-15T19:15:00.304Z,1.8
2022-09-15T19:20:00.256Z,2.3
2022-09-15T19:25:00.233Z,1.7
2022-09-15T19:30:00.344Z,3.6
2022-09-15T19:35:00.290Z,3.3
2022-09-15T19:40:00.476Z,3.6
2022-09-15T19:55:00.280Z,3.8
2022-09-15T20:00:02.825Z,2.3
2022-09-15T20:10:00.343Z,3.1
2022-09-15T20:15:00.251Z,2.6
2022-09-15T20:25:00.255Z,1.7
2022-09-15T20:30:00.266Z,4.1
2022-09-15T20:35:00.223Z,2.8
2022-09-15T20:40:00.361Z,2.5
2022-09-15T20:45:00.258Z,1.9
2022-09-15T20:50:00.278Z,2.9
2022-09-15T20:55:00.254Z,1.5
2022-09-15T21:00:00.298Z,0.8
2022-09-15T21:05:00.231Z,1.3
2022-09-15T21:10:00.314Z,2.0
2022-09-15T21:15:00.252Z,3.8
2022-09-15T21:20:00.264Z,2.4
2022-09-15T21:25:00.285Z,1.4
2022-09-15T21:30:00.328Z,0.9
2022-09-15T21:35:00.258Z,2.7
2022-09-15T21:40:00.497Z,1.5
2022-09-15T21:45:00.313Z,3.1
2022-09-15T21:50:00.263Z,2.4
2022-09-15T21:55:00.252Z,4.3
2022-09-15T22:00:00.337Z,3.6
2022-09-15T22:05:00.239Z,3.2
2022-09-15T22:10:00.292Z,1.9
2022-09-15T22:15:00.260Z,2.0
2022-09-15T22:20:00.268Z,2.0
2022-09-15T22:25:00.287Z,2.1
2022-09-15T22:30:00.339Z,2.3
2022-09-15T22:35:00.241Z,2.4
2022-09-15T22:40:00.560Z,3.4
2022-09-15T22:45:00.249Z,3.2
2022-09-15T22:50:00.255Z,1.8
2022-09-15T22:55:00.234Z,4.0
2022-09-15T23:00:00.288Z,3.5
2022-09-15T23:05:00.316Z,1.5
2022-09-15T23:10:00.241Z,2.2
2022-09-15T23:15:00.259Z,1.9
2022-09-15T23:20:00.289Z,3.3
2022-09-15T23:25:00.262Z,5.9
2022-09-15T23:30:00.264Z,3.6
2022-09-15T23:35:00.198Z,3.7
2022-09-15T23:40:00.441Z,2.0
2022-09-15T23:45:00.241Z,2.2
2022-09-15T23:50:00.250Z,2.2
2022-09-15T23:55:00.226Z,3.8
